Time;durP1;ratioP1;P1;durP2;ratioP2;P2;SDS_P1;SDS_P2;PMS_P1;PMS_P2;Temp;Humidity;BMP_temperature;BMP_pressure;BME280_temperature;BME280_humidity;BME280_pressure;Samples;Min_cycle;Max_cycle;Signal;HPM_P1;HPM_P2
2022/11/30 00:01:12;;;;;;;37.42;22.95;;;;;;;9.73;71.58;102178.00;5142383;27;20061;-59
2022/11/30 00:03:40;;;;;;;48.28;23.27;;;;;;;9.72;71.34;102170.97;5134077;27;20084;-60
2022/11/30 00:06:10;;;;;;;43.20;24.23;;;;;;;9.70;71.24;102176.50;5146428;27;20098;-60
2022/11/30 00:08:38;;;;;;;49.53;23.73;;;;;;;9.69;72.04;102177.53;5143286;27;20066;-60
2022/11/30 00:11:10;;;;;;;41.70;22.67;;;;;;;9.69;71.56;102176.69;5146504;27;20130;-60
2022/11/30 00:13:38;;;;;;;42.38;23.83;;;;;;;9.70;71.62;102173.00;5146148;27;20051;-60
2022/11/30 00:16:06;;;;;;;41.55;24.15;;;;;;;9.68;71.93;102173.16;5146593;27;20143;-60
2022/11/30 00:18:36;;;;;;;43.67;23.17;;;;;;;9.69;71.67;102177.53;5146745;27;20376;-60
2022/11/30 00:21:07;;;;;;;44.65;24.30;;;;;;;9.69;71.53;102176.69;5141055;27;20070;-60
2022/11/30 00:23:36;;;;;;;54.47;23.90;;;;;;;9.68;71.53;102170.50;5135794;27;20073;-60
2022/11/30 00:26:06;;;;;;;43.33;22.60;;;;;;;9.69;71.74;102176.69;5145216;27;20126;-60
2022/11/30 00:28:35;;;;;;;42.63;23.90;;;;;;;9.70;71.97;102175.66;5147846;27;20455;-61
2022/11/30 00:31:06;;;;;;;52.00;25.75;;;;;;;9.69;71.58;102179.38;5133476;27;20059;-60
2022/11/30 00:33:37;;;;;;;45.80;23.50;;;;;;;9.67;71.87;102182.25;5133800;27;20392;-60
2022/11/30 00:36:07;;;;;;;42.08;22.55;;;;;;;9.68;71.88;102175.03;5144095;27;20575;-60
2022/11/30 00:38:35;;;;;;;42.22;22.75;;;;;;;9.69;71.93;102176.69;5148353;27;20047;-60
2022/11/30 00:41:03;;;;;;;50.13;25.23;;;;;;;9.67;71.84;102176.03;5141425;27;20051;-60
2022/11/30 00:43:31;;;;;;;44.33;23.95;;;;;;;9.68;71.94;102178.53;5148187;27;20170;-60
2022/11/30 00:45:59;;;;;;;42.85;23.42;;;;;;;9.64;71.70;102171.03;5145895;27;20123;-59
2022/11/30 00:48:27;;;;;;;39.70;23.95;;;;;;;9.66;71.77;102191.31;5146893;27;20088;-60
2022/11/30 00:50:56;;;;;;;45.35;25.08;;;;;;;9.65;71.98;102178.91;5141826;27;20078;-60
2022/11/30 00:53:24;;;;;;;43.47;23.55;;;;;;;9.63;72.19;102180.94;5150581;27;20130;-60
2022/11/30 00:55:52;;;;;;;48.50;23.70;;;;;;;9.63;72.01;102186.31;5136032;27;20576;-60
2022/11/30 00:58:19;;;;;;;39.63;22.50;;;;;;;9.62;72.06;102190.00;5139185;27;20047;-60
2022/11/30 01:00:47;;;;;;;42.10;23.13;;;;;;;9.63;72.11;102185.47;5142497;27;20114;-60
2022/11/30 01:03:15;;;;;;;39.83;22.98;;;;;;;9.61;72.04;102190.19;5134976;27;20543;-60
2022/11/30 01:05:43;;;;;;;42.25;22.60;;;;;;;9.60;72.07;102186.69;5145680;27;20047;-60
2022/11/30 01:08:12;;;;;;;43.15;23.23;;;;;;;9.60;72.39;102194.72;5140327;27;20491;-60
2022/11/30 01:10:42;;;;;;;42.22;23.40;;;;;;;9.59;72.43;102193.06;5147317;27;20115;-60
2022/11/30 01:13:11;;;;;;;42.08;22.83;;;;;;;9.58;72.44;102199.44;5145353;27;20114;-60
2022/11/30 01:15:41;;;;;;;43.55;22.92;;;;;;;9.59;72.34;102197.59;5141192;27;20461;-60
2022/11/30 01:18:10;;;;;;;45.95;22.85;;;;;;;9.57;72.06;102197.78;5146729;27;20088;-60
2022/11/30 01:20:41;;;;;;;48.10;23.73;;;;;;;9.57;71.93;102191.56;5143673;27;20094;-60
2022/11/30 01:23:09;;;;;;;48.13;23.77;;;;;;;9.55;72.17;102197.13;5144676;27;20136;-60
2022/11/30 01:25:38;;;;;;;44.67;24.85;;;;;;;9.55;72.35;102204.34;5138772;27;20058;-60
2022/11/30 01:28:05;;;;;;;40.67;23.88;;;;;;;9.53;72.28;102199.16;5140073;27;20465;-61
2022/11/30 01:30:33;;;;;;;43.72;22.33;;;;;;;9.53;72.81;102201.84;5142049;27;20066;-60
2022/11/30 01:33:02;;;;;;;42.38;22.98;;;;;;;9.54;72.85;102200.81;5142881;27;20043;-61
2022/11/30 01:35:30;;;;;;;41.60;22.17;;;;;;;9.54;72.21;102200.81;5144501;27;20158;-61
2022/11/30 01:37:57;;;;;;;44.17;24.75;;;;;;;9.55;72.67;102198.97;5144889;27;20071;-60
2022/11/30 01:40:25;;;;;;;39.38;21.50;;;;;;;9.56;72.68;102195.28;5131150;27;20062;-60
2022/11/30 01:42:54;;;;;;;42.80;23.98;;;;;;;9.54;72.37;102195.47;5149653;27;20108;-61
2022/11/30 01:45:22;;;;;;;38.38;22.08;;;;;;;9.56;72.55;102200.63;5145704;27;20074;-60
2022/11/30 01:47:55;;;;;;;43.83;22.98;;;;;;;9.55;72.38;102201.66;5142683;27;20057;-60
2022/11/30 01:50:27;;;;;;;43.97;23.70;;;;;;;9.54;72.77;102195.47;5146304;27;20077;-60
2022/11/30 01:52:57;;;;;;;43.20;22.27;;;;;;;9.54;72.65;102200.81;5145245;27;20122;-60
2022/11/30 01:55:29;;;;;;;39.75;20.95;;;;;;;9.54;72.14;102202.66;5142433;27;20115;-60
2022/11/30 01:58:04;;;;;;;44.85;22.55;;;;;;;9.55;72.56;102198.97;5144244;27;20043;-60
2022/11/30 02:00:32;;;;;;;42.47;23.92;;;;;;;9.52;72.46;102204.69;5136138;27;20067;-59
2022/11/30 02:03:02;;;;;;;41.08;21.98;;;;;;;9.55;72.27;102212.38;5143356;27;20051;-59
2022/11/30 02:05:32;;;;;;;44.45;23.45;;;;;;;9.55;72.34;102213.22;5145650;27;20584;-60
2022/11/30 02:08:01;;;;;;;40.42;20.63;;;;;;;9.55;72.25;102209.72;5133418;27;20116;-60
2022/11/30 02:10:32;;;;;;;36.67;21.83;;;;;;;9.56;72.30;102212.22;5134388;27;20395;-60
2022/11/30 02:13:37;;;;;;;42.80;21.27;;;;;;;9.56;72.26;102214.06;5144071;27;20138;-60
2022/11/30 02:16:15;;;;;;;35.67;19.58;;;;;;;9.57;72.50;102213.03;5130103;27;20057;-60
2022/11/30 02:18:53;;;;;;;39.13;21.95;;;;;;;9.57;72.74;102215.72;5132926;27;20213;-60
2022/11/30 02:21:26;;;;;;;39.38;19.95;;;;;;;9.56;72.13;102217.56;5143367;27;20056;-61
2022/11/30 02:24:13;;;;;;;34.28;20.63;;;;;;;9.57;72.68;102216.56;5137779;27;20065;-60
2022/11/30 02:27:14;;;;;;;37.67;19.70;;;;;;;9.56;72.61;102224.78;5142937;27;20072;-60
2022/11/30 02:29:49;;;;;;;38.80;19.33;;;;;;;9.55;72.46;102212.38;5137781;27;20107;-60
2022/11/30 02:32:21;;;;;;;38.25;20.23;;;;;;;9.55;72.10;102220.44;5135672;27;20054;-60
2022/11/30 02:34:51;;;;;;;34.95;19.80;;;;;;;9.55;72.30;102225.81;5141969;27;20054;-60
2022/11/30 02:37:21;;;;;;;34.72;18.63;;;;;;;9.54;72.76;102222.28;5139327;27;20043;-60
2022/11/30 02:39:48;;;;;;;36.03;18.52;;;;;;;9.55;72.29;102225.81;5143582;27;20123;-60
2022/11/30 02:42:16;;;;;;;39.58;20.45;;;;;;;9.55;72.55;102223.13;5141542;27;20053;-59
2022/11/30 02:44:49;;;;;;;33.85;19.10;;;;;;;9.55;72.46;102217.75;5137740;27;20039;-59
2022/11/30 02:47:23;;;;;;;33.20;19.05;;;;;;;9.55;72.16;102223.97;5143663;27;20469;-60
2022/11/30 02:49:56;;;;;;;38.00;18.80;;;;;;;9.56;72.28;102230.16;5143539;27;20051;-61
2022/11/30 02:52:26;;;;;;;32.03;17.88;;;;;;;9.56;72.20;102230.16;5135426;27;20055;-60
2022/11/30 02:54:58;;;;;;;33.63;18.67;;;;;;;9.55;71.87;102229.31;5138600;27;20050;-60
2022/11/30 02:57:26;;;;;;;31.13;17.80;;;;;;;9.55;72.07;102228.50;5141195;27;20058;-60
2022/11/30 02:59:55;;;;;;;33.95;17.25;;;;;;;9.54;72.22;102233.03;5142153;27;20065;-60
2022/11/30 03:02:23;;;;;;;32.22;16.90;;;;;;;9.55;72.50;102225.81;5138563;27;20042;-61
2022/11/30 03:04:51;;;;;;;27.50;16.60;;;;;;;9.55;72.12;102228.50;5144649;27;20067;-59
2022/11/30 03:07:18;;;;;;;29.00;16.55;;;;;;;9.55;71.88;102231.19;5138179;27;20484;-60
2022/11/30 03:09:46;;;;;;;25.50;15.80;;;;;;;9.55;72.66;102229.31;5142108;27;20055;-60
2022/11/30 03:12:14;;;;;;;30.40;16.13;;;;;;;9.54;71.93;102222.28;5140320;27;20046;-60
2022/11/30 03:14:41;;;;;;;29.58;16.98;;;;;;;9.55;72.15;102223.13;5139346;27;20071;-60
2022/11/30 03:17:10;;;;;;;29.40;17.33;;;;;;;9.55;72.27;102228.50;5138749;27;20043;-61
2022/11/30 03:19:38;;;;;;;25.33;16.25;;;;;;;9.55;72.27;102231.19;5145102;27;20058;-61
2022/11/30 03:22:06;;;;;;;27.70;16.05;;;;;;;9.54;72.35;102226.81;5140135;27;20058;-61
2022/11/30 03:24:34;;;;;;;27.65;15.15;;;;;;;9.54;72.00;102230.34;5144390;28;20043;-60
2022/11/30 03:27:02;;;;;;;25.05;15.82;;;;;;;9.54;72.25;102230.34;5143183;28;20058;-60
2022/11/30 03:29:29;;;;;;;24.38;15.40;;;;;;;9.55;72.27;102239.22;5143773;28;20110;-60
2022/11/30 03:31:57;;;;;;;24.23;15.85;;;;;;;9.54;71.94;102235.72;5127503;28;20043;-60
2022/11/30 03:34:27;;;;;;;26.10;15.10;;;;;;;9.54;71.83;102226.81;5141298;28;20047;-60
2022/11/30 03:36:55;;;;;;;28.48;15.52;;;;;;;9.54;72.23;102230.34;5128659;28;20453;-60
2022/11/30 03:39:23;;;;;;;23.67;14.80;;;;;;;9.49;71.73;102222.00;5145078;28;20138;-59
2022/11/30 03:41:51;;;;;;;26.58;14.45;;;;;;;9.54;71.90;102229.50;5138529;28;20079;-60
2022/11/30 03:44:19;;;;;;;25.20;14.32;;;;;;;9.54;71.93;102234.88;5142615;28;20045;-60
2022/11/30 03:46:47;;;;;;;24.23;14.07;;;;;;;9.50;71.71;102221.00;5142849;28;20719;-60
2022/11/30 03:49:14;;;;;;;24.15;13.25;;;;;;;9.53;72.23;102233.22;5140889;28;20397;-60
2022/11/30 03:51:43;;;;;;;24.08;14.38;;;;;;;9.54;72.02;102234.88;5142699;28;20126;-60
2022/11/30 03:54:11;;;;;;;22.35;13.73;;;;;;;9.54;71.54;102237.56;5144162;28;20075;-61
2022/11/30 03:56:39;;;;;;;22.52;13.57;;;;;;;9.52;71.77;102235.06;5139164;28;20047;-59
2022/11/30 03:59:06;;;;;;;21.50;14.32;;;;;;;9.54;71.45;102235.72;5140278;28;20111;-60
2022/11/30 04:01:35;;;;;;;21.83;13.32;;;;;;;9.53;72.17;102233.22;5135784;28;20039;-60
2022/11/30 04:04:03;;;;;;;25.88;13.70;;;;;;;9.54;71.72;102232.19;5138122;28;20044;-60
2022/11/30 04:06:31;;;;;;;21.55;13.50;;;;;;;9.54;71.96;102235.72;5143102;28;20491;-60
2022/11/30 04:09:00;;;;;;;21.70;13.35;;;;;;;9.54;71.87;102233.03;5126672;28;20039;-60
2022/11/30 04:11:28;;;;;;;23.95;12.55;;;;;;;9.53;71.57;102234.03;5142499;28;20142;-60
2022/11/30 04:13:55;;;;;;;21.50;13.77;;;;;;;9.53;72.05;102238.56;5139458;28;20071;-60
2022/11/30 04:16:23;;;;;;;20.58;13.07;;;;;;;9.53;71.51;102238.56;5134406;28;20463;-60
2022/11/30 04:18:51;;;;;;;22.80;13.35;;;;;;;9.52;71.61;102234.22;5143721;28;20051;-60
2022/11/30 04:21:19;;;;;;;19.25;12.13;;;;;;;9.51;71.60;102236.06;5140134;27;20575;-60
2022/11/30 04:23:46;;;;;;;19.30;11.93;;;;;;;9.52;71.87;102237.75;5147969;27;20126;-60
2022/11/30 04:26:17;;;;;;;20.48;13.20;;;;;;;9.51;71.76;102230.72;5140022;27;20056;-60
2022/11/30 04:28:44;;;;;;;18.52;11.90;;;;;;;9.51;71.55;102236.06;5131673;27;20058;-59
2022/11/30 04:31:13;;;;;;;19.05;12.85;;;;;;;9.52;71.32;102232.38;5144397;27;20119;-59
2022/11/30 04:33:40;;;;;;;18.48;12.18;;;;;;;9.52;71.71;102234.22;5139652;27;20063;-60
2022/11/30 04:36:18;;;;;;;25.67;13.35;;;;;;;9.52;71.87;102236.91;5138951;27;20049;-59
2022/11/30 04:38:47;;;;;;;21.90;12.07;;;;;;;9.52;72.06;102239.59;5129011;27;20407;-60
2022/11/30 04:41:16;;;;;;;18.08;11.85;;;;;;;9.52;71.66;102237.75;5144779;27;20062;-60
2022/11/30 04:43:43;;;;;;;20.10;11.93;;;;;;;9.52;72.09;102244.97;5146872;27;20572;-60
2022/11/30 04:46:11;;;;;;;18.75;11.23;;;;;;;9.51;71.71;102240.59;5130387;27;20069;-60
2022/11/30 04:48:39;;;;;;;17.85;12.43;;;;;;;9.50;71.58;102241.63;5130047;27;20055;-60
2022/11/30 04:51:08;;;;;;;18.00;11.20;;;;;;;9.50;71.55;102244.31;5141488;27;20058;-60
2022/11/30 04:53:37;;;;;;;18.52;11.30;;;;;;;9.50;72.14;102247.00;5152006;27;20078;-59
2022/11/30 04:56:06;;;;;;;19.65;12.00;;;;;;;9.49;71.46;102239.94;5143705;27;20051;-60
2022/11/30 04:58:36;;;;;;;16.27;10.82;;;;;;;9.50;71.46;102247.81;5147140;27;20047;-60
2022/11/30 05:01:03;;;;;;;18.88;11.52;;;;;;;9.50;71.93;102249.66;5145658;27;20065;-60
2022/11/30 05:03:31;;;;;;;20.30;11.63;;;;;;;9.48;71.93;102244.47;5146816;27;20106;-60
2022/11/30 05:05:59;;;;;;;20.48;12.52;;;;;;;9.48;72.04;102241.81;5144982;27;20047;-60
2022/11/30 05:08:26;;;;;;;18.38;11.27;;;;;;;9.48;72.12;102244.47;5145026;27;20050;-60
2022/11/30 05:10:55;;;;;;;15.70;10.38;;;;;;;9.47;71.53;102242.81;5145976;27;20048;-60
2022/11/30 05:13:24;;;;;;;20.88;11.82;;;;;;;9.47;71.51;102253.56;5142194;27;20058;-60
2022/11/30 05:15:54;;;;;;;19.17;11.38;;;;;;;9.48;71.80;102249.84;5144205;27;20045;-60
2022/11/30 05:18:21;;;;;;;18.70;11.55;;;;;;;9.48;71.71;102244.47;5133192;27;20055;-60
2022/11/30 05:20:50;;;;;;;19.10;10.68;;;;;;;9.49;71.54;102248.00;5131561;27;20714;-60
2022/11/30 05:23:18;;;;;;;15.68;10.60;;;;;;;9.48;71.83;102249.84;5151334;27;20053;-60
2022/11/30 05:25:47;;;;;;;16.88;10.52;;;;;;;9.42;71.96;102248.72;5150133;27;20039;-60
2022/11/30 05:28:15;;;;;;;20.33;12.13;;;;;;;9.46;71.67;102251.88;5134747;27;20058;-60
2022/11/30 05:30:43;;;;;;;16.30;11.38;;;;;;;9.46;72.16;102251.88;5143521;27;20054;-60
2022/11/30 05:33:12;;;;;;;22.83;12.65;;;;;;;9.46;71.97;102263.44;5145942;27;20043;-60
2022/11/30 05:35:40;;;;;;;20.30;11.95;;;;;;;9.48;71.59;102259.75;5136280;27;20046;-59
2022/11/30 05:38:07;;;;;;;20.63;12.05;;;;;;;9.48;71.53;102257.91;5145952;27;20051;-59
2022/11/30 05:40:35;;;;;;;18.38;12.07;;;;;;;9.48;71.62;102260.59;5144307;27;20053;-59
2022/11/30 05:43:04;;;;;;;17.75;11.55;;;;;;;9.49;71.84;102261.41;5143530;27;20047;-59
2022/11/30 05:45:32;;;;;;;21.15;13.00;;;;;;;9.48;71.96;102265.94;5144280;27;20540;-60
2022/11/30 05:48:00;;;;;;;19.10;12.88;;;;;;;9.48;71.56;102267.81;5141925;27;20166;-60
2022/11/30 05:50:29;;;;;;;19.92;11.73;;;;;;;9.48;71.78;102267.81;5139929;27;20055;-61
2022/11/30 05:52:59;;;;;;;20.30;11.85;;;;;;;9.47;71.81;102269.66;5144645;27;20528;-60
2022/11/30 05:55:29;;;;;;;20.30;12.90;;;;;;;9.46;71.56;102270.66;5141334;27;20103;-61
2022/11/30 05:57:57;;;;;;;20.05;12.10;;;;;;;9.46;71.31;102276.88;5144940;27;20055;-60
2022/11/30 06:00:25;;;;;;;19.98;12.45;;;;;;;9.47;71.85;102280.38;5140374;27;20138;-60
2022/11/30 06:02:56;;;;;;;18.58;11.95;;;;;;;9.46;71.66;102281.41;5139884;27;20058;-60
2022/11/30 06:05:25;;;;;;;18.23;11.77;;;;;;;9.44;71.67;102275.38;5127443;27;20047;-60
2022/11/30 06:07:55;;;;;;;22.20;12.73;;;;;;;9.43;71.78;102282.59;5142402;27;20078;-61
2022/11/30 06:10:24;;;;;;;22.17;12.40;;;;;;;9.45;72.02;102291.28;5138105;27;20058;-61
2022/11/30 06:12:52;;;;;;;22.92;12.88;;;;;;;9.46;71.51;102292.13;5138098;27;20089;-60
2022/11/30 06:15:20;;;;;;;20.10;12.48;;;;;;;9.46;71.66;102289.44;5141821;27;20131;-60
2022/11/30 06:17:47;;;;;;;20.33;13.23;;;;;;;9.45;71.90;102287.78;5132703;27;20051;-60
2022/11/30 06:20:15;;;;;;;20.02;13.32;;;;;;;9.45;71.70;102287.78;5145238;27;20043;-61
2022/11/30 06:22:45;;;;;;;20.17;13.05;;;;;;;9.44;71.48;102280.75;5141183;27;20051;-61
2022/11/30 06:25:14;;;;;;;20.83;13.35;;;;;;;9.43;71.48;102287.97;5141334;27;20109;-65
2022/11/30 06:27:42;;;;;;;19.05;11.75;;;;;;;9.42;71.67;102286.28;5144995;27;20058;-64
2022/11/30 06:30:12;;;;;;;20.10;12.70;;;;;;;9.44;71.66;102288.78;5139933;27;20047;-62
2022/11/30 06:32:39;;;;;;;22.10;12.93;;;;;;;9.43;71.70;102287.97;5141975;27;20130;-61
2022/11/30 06:35:08;;;;;;;19.35;11.82;;;;;;;9.43;71.91;102287.97;5125468;28;20077;-60
2022/11/30 06:37:35;;;;;;;22.33;12.65;;;;;;;9.43;71.66;102287.97;5138672;27;20480;-61
2022/11/30 06:40:05;;;;;;;18.98;12.40;;;;;;;9.43;71.84;102281.75;5143132;27;20054;-61
2022/11/30 06:42:36;;;;;;;17.73;11.50;;;;;;;9.42;71.50;102288.13;5145014;27;20120;-61
2022/11/30 06:45:05;;;;;;;19.20;12.15;;;;;;;9.42;71.63;102296.19;5141994;27;20044;-61
2022/11/30 06:47:33;;;;;;;20.08;12.10;;;;;;;9.42;71.95;102293.50;5141835;27;20047;-62
2022/11/30 06:50:01;;;;;;;20.25;13.10;;;;;;;9.42;71.65;102288.13;5144777;27;20051;-63
2022/11/30 06:52:31;;;;;;;16.98;11.45;;;;;;;9.42;71.28;102312.28;5131888;27;20056;-61
2022/11/30 06:54:58;;;;;;;18.17;11.85;;;;;;;9.41;71.59;102305.25;5134345;27;20062;-61
2022/11/30 06:57:27;;;;;;;20.70;12.20;;;;;;;9.40;71.99;102304.41;5137757;27;20043;-61
2022/11/30 06:59:57;;;;;;;21.77;12.35;;;;;;;9.41;71.65;102313.31;4775848;27;10000222;-62
2022/11/30 07:02:24;;;;;;;20.73;11.93;;;;;;;9.37;71.52;102299.41;5134704;27;20065;-64
2022/11/30 07:04:52;;;;;;;17.50;12.05;;;;;;;9.40;72.21;102315.16;5141264;27;20119;-64
2022/11/30 07:07:20;;;;;;;21.50;12.90;;;;;;;9.40;71.73;102306.25;5141336;27;20137;-63
2022/11/30 07:09:49;;;;;;;19.33;12.27;;;;;;;9.40;71.72;102314.31;5132501;27;20062;-64
2022/11/30 07:12:17;;;;;;;19.30;12.55;;;;;;;9.40;71.69;102314.31;5138730;27;20053;-62
2022/11/30 07:14:44;;;;;;;21.15;13.38;;;;;;;9.38;71.82;102308.28;5130701;27;20069;-63
2022/11/30 07:17:14;;;;;;;21.70;13.13;;;;;;;9.34;71.86;102312.34;5139227;27;20108;-61
2022/11/30 07:19:42;;;;;;;22.58;13.18;;;;;;;9.34;71.90;102323.91;5140971;27;20046;-61
2022/11/30 07:22:09;;;;;;;21.23;13.55;;;;;;;9.35;71.78;102322.06;5128128;27;20070;-62
2022/11/30 07:27:22;;;;;;;19.90;13.20;;;;;;;9.36;71.75;102326.41;5137161;28;20058;-61
2022/11/30 07:29:51;;;;;;;20.05;13.18;;;;;;;9.36;72.21;102331.78;5123785;28;20081;-61
2022/11/30 07:32:20;;;;;;;20.75;13.48;;;;;;;9.38;71.48;102337.81;5133036;27;20043;-61
2022/11/30 07:34:48;;;;;;;25.05;13.40;;;;;;;9.38;71.47;102338.63;5142847;28;20049;-62
2022/11/30 07:37:16;;;;;;;20.55;13.07;;;;;;;9.39;71.64;102343.00;5143933;28;20047;-62
2022/11/30 07:39:44;;;;;;;21.02;14.13;;;;;;;9.37;71.84;102345.03;5145320;28;20039;-61
2022/11/30 07:42:12;;;;;;;23.75;13.00;;;;;;;9.38;71.67;102343.16;5139838;28;20092;-61
2022/11/30 07:44:40;;;;;;;20.67;12.10;;;;;;;9.33;71.80;102341.03;5135189;28;20054;-61
2022/11/30 07:47:07;;;;;;;20.67;12.75;;;;;;;9.37;71.77;102350.38;5142629;28;20130;-62
2022/11/30 07:49:38;;;;;;;19.30;11.63;;;;;;;9.37;71.71;102352.22;5141636;28;20138;-62
2022/11/30 07:52:07;;;;;;;19.10;12.82;;;;;;;9.38;71.94;102351.22;5140064;28;20051;-61
2022/11/30 07:54:34;;;;;;;21.17;13.48;;;;;;;9.26;71.64;102345.41;5143002;28;20074;-60
2022/11/30 07:57:02;;;;;;;19.67;11.95;;;;;;;9.37;71.89;102353.06;5146111;27;20415;-62
2022/11/30 07:59:30;;;;;;;19.83;13.35;;;;;;;9.37;71.67;102357.59;5136696;27;20051;-61
2022/11/30 08:01:59;;;;;;;20.45;13.10;;;;;;;9.38;71.56;102359.28;5126893;28;20058;-61
2022/11/30 08:04:27;;;;;;;17.67;12.02;;;;;;;9.38;72.15;102356.59;5128998;27;20074;-62
2022/11/30 08:06:56;;;;;;;23.00;13.57;;;;;;;9.37;71.90;102357.59;5138950;27;20050;-62
2022/11/30 08:09:23;;;;;;;19.77;14.00;;;;;;;9.36;72.13;102363.97;5147697;27;20074;-62
2022/11/30 08:11:51;;;;;;;21.25;14.02;;;;;;;9.36;71.46;102364.81;5147924;27;20103;-62
2022/11/30 08:14:19;;;;;;;20.25;13.10;;;;;;;9.36;71.42;102361.28;5147363;27;20426;-61
2022/11/30 08:16:47;;;;;;;21.85;13.60;;;;;;;9.35;71.28;102370.34;5139302;27;20035;-61
2022/11/30 08:19:15;;;;;;;23.00;14.40;;;;;;;9.35;71.97;102373.03;5146240;27;20043;-61
2022/11/30 08:21:43;;;;;;;18.05;12.40;;;;;;;9.34;71.40;102368.69;5146599;27;20456;-62
2022/11/30 08:24:13;;;;;;;18.15;12.57;;;;;;;9.32;71.53;102371.53;5133951;27;20070;-61
2022/11/30 08:26:41;;;;;;;22.25;12.65;;;;;;;9.33;71.46;102369.69;5148016;27;20180;-61
2022/11/30 08:29:09;;;;;;;18.63;13.05;;;;;;;9.32;72.01;102366.19;5143886;27;20047;-60
2022/11/30 08:31:38;;;;;;;23.38;12.95;;;;;;;9.36;72.22;102374.72;5143989;27;20043;-60
2022/11/30 08:34:07;;;;;;;18.88;12.70;;;;;;;9.34;71.36;102384.78;5138173;27;20047;-61
2022/11/30 08:36:35;;;;;;;19.80;12.60;;;;;;;9.35;71.69;102375.72;5140769;27;20110;-61
2022/11/30 08:39:04;;;;;;;19.13;12.77;;;;;;;9.35;71.86;102375.72;5146731;27;20062;-60
2022/11/30 08:41:37;;;;;;;17.95;12.95;;;;;;;9.45;71.59;102384.38;5132612;27;20053;-62
2022/11/30 08:44:06;;;;;;;22.55;12.70;;;;;;;9.58;71.06;102390.00;5145224;27;20071;-62
2022/11/30 08:46:34;;;;;;;18.02;12.68;;;;;;;9.72;70.38;102391.09;5144198;27;20138;-64
2022/11/30 08:49:20;;;;;;;18.60;12.18;;;;;;;9.94;69.78;102398.31;5137204;27;20051;-68
2022/11/30 08:51:53;;;;;;;16.27;12.05;;;;;;;10.13;68.77;102391.63;5136978;27;20075;-64
2022/11/30 08:54:43;;;;;;;20.92;13.40;;;;;;;10.30;68.12;102403.09;5133719;27;20531;-63
2022/11/30 08:57:15;;;;;;;18.77;12.73;;;;;;;10.50;67.54;102406.91;5144301;27;20047;-63
2022/11/30 08:59:43;;;;;;;18.35;11.57;;;;;;;10.65;67.08;102394.31;5146133;27;20063;-63
2022/11/30 09:02:12;;;;;;;16.58;11.45;;;;;;;10.83;66.40;102396.63;5144886;27;20061;-63
2022/11/30 09:04:39;;;;;;;17.77;12.10;;;;;;;10.93;66.12;102404.41;5146344;27;20065;-63
2022/11/30 09:07:08;;;;;;;17.88;11.25;;;;;;;11.02;65.60;102396.06;5144073;27;20074;-63
2022/11/30 09:09:36;;;;;;;20.52;12.15;;;;;;;11.14;65.34;102398.28;5141966;27;20068;-62
2022/11/30 09:12:04;;;;;;;20.02;12.45;;;;;;;11.23;64.87;102402.53;5145341;27;20067;-62
2022/11/30 09:14:33;;;;;;;15.75;11.55;;;;;;;11.24;64.82;102399.66;5143903;27;20069;-65
2022/11/30 09:17:01;;;;;;;16.63;11.57;;;;;;;11.28;64.59;102406.34;5136577;27;20050;-62
2022/11/30 09:19:29;;;;;;;20.75;12.95;;;;;;;11.30;64.74;102412.38;5145686;27;20591;-67
2022/11/30 09:21:56;;;;;;;16.05;11.48;;;;;;;11.29;64.71;102402.63;5138746;27;20143;-68
2022/11/30 09:24:24;;;;;;;17.35;12.57;;;;;;;11.30;64.66;102408.84;5138734;27;20050;-63
2022/11/30 09:26:55;;;;;;;17.92;11.52;;;;;;;11.21;65.08;102399.19;5146366;27;20057;-63
2022/11/30 09:29:23;;;;;;;18.88;12.70;;;;;;;11.08;65.33;102413.31;5145159;27;20034;-62
2022/11/30 09:31:52;;;;;;;19.10;12.82;;;;;;;10.88;65.98;102420.28;5142472;27;20051;-62
2022/11/30 09:34:20;;;;;;;23.70;13.63;;;;;;;10.60;66.56;102401.25;5140597;27;20061;-64
2022/11/30 09:36:47;;;;;;;21.20;13.65;;;;;;;10.56;67.08;102414.22;5144793;27;20046;-62
2022/11/30 09:39:15;;;;;;;21.23;14.00;;;;;;;10.43;67.41;102417.53;5144553;27;20047;-62
2022/11/30 09:42:21;;;;;;;18.10;12.57;;;;;;;10.34;68.13;102415.16;5144670;27;20043;-63
2022/11/30 09:44:58;;;;;;;23.60;14.02;;;;;;;10.26;68.53;102416.06;5144494;27;20050;-63
2022/11/30 09:47:42;;;;;;;17.33;12.55;;;;;;;10.20;68.74;102418.63;5144207;27;20070;-63
2022/11/30 09:50:13;;;;;;;20.38;13.68;;;;;;;10.14;69.08;102417.47;5129936;27;20066;-63
2022/11/30 09:52:44;;;;;;;21.13;14.27;;;;;;;10.10;69.11;102418.84;5145532;27;20069;-63
2022/11/30 09:55:20;;;;;;;22.08;13.10;;;;;;;10.04;69.34;102422.25;5141391;27;20366;-63
2022/11/30 09:57:52;;;;;;;20.10;13.35;;;;;;;10.01;69.54;102420.75;5145111;27;20045;-63
2022/11/30 10:00:22;;;;;;;23.10;13.95;;;;;;;9.99;69.28;102419.25;5144528;27;20049;-63
2022/11/30 10:02:53;;;;;;;24.98;15.60;;;;;;;9.95;69.44;102412.56;5143244;27;20078;-62
2022/11/30 10:05:23;;;;;;;21.17;14.52;;;;;;;9.91;69.57;102414.78;5144646;27;20107;-63
2022/11/30 10:08:06;;;;;;;23.25;13.82;;;;;;;9.91;69.40;102420.16;5141633;27;20047;-63
2022/11/30 10:10:40;;;;;;;21.40;14.43;;;;;;;9.89;69.62;102418.66;5143945;27;20130;-62
2022/11/30 10:13:26;;;;;;;21.08;13.65;;;;;;;9.86;69.59;102413.66;5143271;27;20126;-63
2022/11/30 10:16:08;;;;;;;27.55;15.50;;;;;;;9.85;69.97;102410.13;5143233;27;20051;-62
2022/11/30 10:18:47;;;;;;;21.48;13.82;;;;;;;9.82;69.66;102415.03;5145142;27;20096;-63
2022/11/30 10:21:28;;;;;;;23.70;14.77;;;;;;;9.82;69.94;102409.66;5125963;27;20130;-63
2022/11/30 10:24:10;;;;;;;20.98;13.77;;;;;;;9.82;70.10;102402.44;5140090;27;20047;-66
2022/11/30 10:26:45;;;;;;;21.65;14.30;;;;;;;9.82;69.75;102409.66;5136555;27;20062;-65
2022/11/30 10:29:18;;;;;;;21.85;15.00;;;;;;;9.78;69.56;102399.28;5140469;27;20099;-63
2022/11/30 10:31:48;;;;;;;22.10;14.23;;;;;;;9.77;69.61;102400.28;5143993;27;20053;-61
2022/11/30 10:34:22;;;;;;;23.20;15.30;;;;;;;9.78;69.28;102398.44;5145004;27;20081;-61
2022/11/30 10:36:56;;;;;;;20.95;14.68;;;;;;;9.74;69.53;102397.13;5140756;27;20055;-62
2022/11/30 10:39:30;;;;;;;22.13;14.50;;;;;;;9.72;69.34;102399.97;5136488;27;20053;-62
2022/11/30 10:42:04;;;;;;;22.90;15.40;;;;;;;9.71;69.30;102400.16;5144393;27;20140;-63
2022/11/30 10:44:38;;;;;;;21.98;15.63;;;;;;;9.71;69.55;102401.00;5136370;27;20122;-63
2022/11/30 10:47:14;;;;;;;22.85;14.55;;;;;;;9.72;70.06;102396.47;5142307;27;20059;-63
2022/11/30 10:49:48;;;;;;;21.35;14.38;;;;;;;9.72;69.88;102393.78;5132030;27;20044;-62
2022/11/30 10:52:22;;;;;;;23.02;15.02;;;;;;;9.71;69.90;102392.09;5136532;27;20055;-63
2022/11/30 10:54:54;;;;;;;21.60;14.75;;;;;;;9.69;69.46;102386.91;5144530;27;20130;-63
2022/11/30 10:57:31;;;;;;;22.70;16.00;;;;;;;9.67;69.82;102378.19;5143041;27;20039;-63
2022/11/30 11:00:04;;;;;;;22.33;14.80;;;;;;;9.67;70.36;102386.25;5139069;27;20053;-63
2022/11/30 11:02:38;;;;;;;23.35;15.20;;;;;;;9.62;69.57;102380.59;5143467;27;20047;-61
2022/11/30 11:05:24;;;;;;;22.02;14.90;;;;;;;9.63;69.43;102386.78;5132778;27;20047;-64
2022/11/30 11:07:56;;;;;;;22.65;14.07;;;;;;;9.63;69.75;102381.41;5140386;27;20047;-64
2022/11/30 11:10:35;;;;;;;23.23;14.63;;;;;;;9.64;70.10;102381.25;5136376;27;20035;-64
2022/11/30 11:13:04;;;;;;;26.67;15.95;;;;;;;9.63;70.18;102379.56;5135204;27;20047;-65
2022/11/30 11:15:34;;;;;;;26.00;16.98;;;;;;;9.63;69.83;102376.06;5141329;27;20153;-63
2022/11/30 11:18:24;;;;;;;25.95;15.02;;;;;;;9.66;70.01;102378.38;5142590;27;20043;-63
2022/11/30 11:21:03;;;;;;;18.30;12.98;;;;;;;9.65;69.99;102385.59;5138052;27;20466;-67
2022/11/30 11:23:36;;;;;;;19.63;13.35;;;;;;;9.63;69.21;102382.25;5144068;27;20096;-65
2022/11/30 11:26:05;;;;;;;24.65;13.45;;;;;;;9.63;69.34;102378.75;5132586;27;20062;-64
2022/11/30 11:28:35;;;;;;;18.60;13.02;;;;;;;9.62;69.15;102388.63;5139368;28;20039;-64
2022/11/30 11:31:17;;;;;;;22.92;13.02;;;;;;;9.60;68.65;102376.41;5144247;27;20043;-64
2022/11/30 11:33:51;;;;;;;18.05;13.02;;;;;;;9.63;68.83;102381.41;5149779;27;20043;-64